Time;durP1;ratioP1;P1;durP2;ratioP2;P2;SDS_P1;SDS_P2;PMS_P1;PMS_P2;Temp;Humidity;BMP_temperature;BMP_pressure;BME280_temperature;BME280_humidity;BME280_pressure;Samples;Min_cycle;Max_cycle;Signal;HPM_P1;HPM_P2
2022/06/24 00:01:58;;;;;;;43.87;41.57;;;18.90;99.90;;;;;;4993039;28;20187;-77
2022/06/24 00:04:28;;;;;;;45.20;42.40;;;18.90;99.90;;;;;;4992879;28;20204;-77
2022/06/24 00:06:58;;;;;;;66.27;62.63;;;18.90;99.90;;;;;;4992413;28;20278;-77
2022/06/24 00:09:30;;;;;;;125.27;118.30;;;18.90;99.90;;;;;;4991900;28;20238;-77
2022/06/24 00:12:14;;;;;;;107.67;101.53;;;18.80;99.90;;;;;;4992980;28;20240;-77
2022/06/24 00:14:42;;;;;;;132.83;125.43;;;18.70;99.90;;;;;;4992897;28;20286;-78
2022/06/24 00:17:10;;;;;;;77.10;73.17;;;18.60;99.90;;;;;;4990926;28;20185;-77
2022/06/24 00:19:54;;;;;;;84.10;79.27;;;18.60;99.90;;;;;;4991454;28;20180;-77
2022/06/24 00:22:20;;;;;;;76.07;71.57;;;18.60;99.90;;;;;;4992668;28;20192;-77
2022/06/24 00:24:46;;;;;;;90.33;85.10;;;18.60;99.90;;;;;;4991388;28;20204;-77
2022/06/24 00:27:22;;;;;;;55.37;52.20;;;18.50;99.90;;;;;;4991857;28;20180;-78
2022/06/24 00:29:51;;;;;;;45.13;42.63;;;18.60;99.90;;;;;;4991231;28;20191;-77
2022/06/24 00:32:29;;;;;;;99.33;93.80;;;18.70;99.90;;;;;;4992841;28;20216;-77
2022/06/24 00:35:16;;;;;;;101.13;95.53;;;18.60;99.90;;;;;;4996108;28;20574;-77
2022/06/24 00:37:44;;;;;;;105.83;99.57;;;18.50;99.90;;;;;;5010253;28;20192;-78
2022/06/24 00:40:09;;;;;;;99.87;93.70;;;18.50;99.90;;;;;;4997495;28;20177;-77
2022/06/24 00:42:46;;;;;;;111.80;105.50;;;18.50;99.90;;;;;;4992584;28;20367;-77
2022/06/24 00:45:33;;;;;;;114.00;107.57;;;18.50;99.90;;;;;;4991341;28;20560;-78
2022/06/24 00:48:01;;;;;;;145.33;137.23;;;18.40;99.90;;;;;;4991561;28;20184;-78
2022/06/24 00:50:31;;;;;;;39.40;37.30;;;18.40;99.90;;;;;;4991195;28;20231;-78
2022/06/24 00:53:00;;;;;;;42.30;39.53;;;18.50;99.90;;;;;;4992340;28;20254;-78
2022/06/24 00:55:36;;;;;;;49.73;46.93;;;18.60;99.90;;;;;;4991039;28;20303;-77
2022/06/24 00:58:03;;;;;;;32.90;30.60;;;18.60;99.90;;;;;;4990874;28;20190;-78
2022/06/24 01:00:32;;;;;;;26.60;24.90;;;18.70;99.90;;;;;;4991199;28;20215;-78
2022/06/24 01:03:04;;;;;;;26.30;24.67;;;18.70;99.90;;;;;;4992275;28;20192;-78
2022/06/24 01:05:31;;;;;;;19.57;18.17;;;18.70;99.90;;;;;;4992127;28;20228;-78
2022/06/24 01:08:04;;;;;;;22.33;20.90;;;18.70;99.90;;;;;;4990307;28;20176;-78
2022/06/24 01:10:30;;;;;;;14.77;13.50;;;18.60;99.90;;;;;;4990987;28;20206;-78
2022/06/24 01:12:56;;;;;;;38.10;36.13;;;18.50;99.90;;;;;;4991494;28;20296;-78
2022/06/24 01:15:22;;;;;;;60.43;57.00;;;18.50;99.90;;;;;;4991057;28;20615;-78
2022/06/24 01:17:48;;;;;;;89.03;84.10;;;18.60;99.90;;;;;;4990352;28;20182;-78
2022/06/24 01:20:14;;;;;;;92.20;87.20;;;18.70;99.90;;;;;;4990802;28;20184;-78
2022/06/24 01:22:41;;;;;;;88.47;83.07;;;18.80;99.90;;;;;;4991033;28;20187;-78
2022/06/24 01:25:08;;;;;;;36.30;34.07;;;18.80;99.90;;;;;;4992040;28;20628;-78
2022/06/24 01:27:34;;;;;;;16.90;15.73;;;18.70;99.90;;;;;;4995950;28;20198;-78
2022/06/24 01:30:00;;;;;;;16.03;15.07;;;18.60;99.90;;;;;;4992348;28;20200;-78
2022/06/24 01:32:26;;;;;;;18.20;17.10;;;18.50;99.90;;;;;;4992593;28;20173;-78
2022/06/24 01:34:52;;;;;;;36.97;34.67;;;18.50;99.90;;;;;;4991323;28;20711;-78
2022/06/24 01:37:18;;;;;;;23.60;22.00;;;18.50;99.90;;;;;;4991035;28;20177;-78
2022/06/24 01:39:44;;;;;;;43.57;40.57;;;18.40;99.90;;;;;;4992828;28;20180;-78
2022/06/24 01:42:10;;;;;;;28.17;26.67;;;18.40;99.90;;;;;;4992090;28;20552;-78
2022/06/24 01:44:36;;;;;;;23.77;21.87;;;18.40;99.90;;;;;;4995251;28;20311;-78
2022/06/24 01:47:02;;;;;;;13.20;11.93;;;18.50;99.90;;;;;;4990967;28;20993;-78
2022/06/24 01:49:29;;;;;;;13.67;12.27;;;18.50;99.90;;;;;;4991575;28;20192;-78
2022/06/24 01:51:56;;;;;;;15.80;14.53;;;18.40;99.90;;;;;;5000746;28;20830;-79
2022/06/24 01:54:22;;;;;;;15.70;14.83;;;18.40;99.90;;;;;;5003523;28;20216;-79
2022/06/24 01:56:48;;;;;;;14.93;13.93;;;18.40;99.90;;;;;;4991807;28;20183;-78
2022/06/24 01:59:14;;;;;;;18.10;16.97;;;18.30;99.90;;;;;;4992791;28;20203;-78
2022/06/24 02:01:41;;;;;;;38.07;35.87;;;18.30;99.90;;;;;;4992092;28;20306;-77
2022/06/24 02:04:08;;;;;;;143.23;135.40;;;18.40;99.90;;;;;;4993679;28;20208;-78
2022/06/24 02:06:34;;;;;;;130.77;123.60;;;18.50;99.90;;;;;;4994210;28;20657;-78
2022/06/24 02:09:00;;;;;;;63.20;59.03;;;18.40;99.90;;;;;;4993245;28;20180;-78
2022/06/24 02:14:10;;;;;;;15.20;14.20;;;18.30;99.90;;;;;;4995225;28;20197;-78
2022/06/24 02:16:38;;;;;;;31.40;29.50;;;18.20;99.90;;;;;;5014986;28;20279;-79
2022/06/24 02:19:04;;;;;;;14.43;13.40;;;18.20;99.90;;;;;;5006958;28;20188;-79
2022/06/24 02:21:30;;;;;;;123.57;116.77;;;18.20;99.90;;;;;;4994915;28;20176;-78
2022/06/24 02:23:56;;;;;;;132.30;124.63;;;18.20;99.90;;;;;;4996643;28;20204;-78
2022/06/24 02:26:23;;;;;;;110.87;104.50;;;18.20;99.90;;;;;;4995150;28;20249;-78
2022/06/24 02:28:49;;;;;;;133.17;125.97;;;18.30;99.90;;;;;;4994602;28;20180;-78
2022/06/24 02:31:15;;;;;;;79.37;74.47;;;18.30;99.90;;;;;;4993223;28;20212;-78
2022/06/24 02:33:41;;;;;;;13.00;12.20;;;18.30;99.90;;;;;;4997276;28;20556;-78
2022/06/24 02:36:07;;;;;;;13.53;12.23;;;18.20;99.90;;;;;;4997929;28;20180;-79
2022/06/24 02:38:34;;;;;;;10.10;9.37;;;18.20;99.90;;;;;;4996012;28;20191;-78
2022/06/24 02:41:00;;;;;;;12.23;11.37;;;18.10;99.90;;;;;;4998484;28;20212;-78
2022/06/24 02:43:31;;;;;;;11.10;10.07;;;18.10;99.90;;;;;;4997833;28;20649;-78
2022/06/24 02:46:00;;;;;;;10.60;9.70;;;18.00;99.90;;;;;;4997212;28;20196;-79
2022/06/24 02:48:28;;;;;;;9.07;8.30;;;18.00;99.90;;;;;;4995679;28;20281;-79
2022/06/24 02:50:57;;;;;;;7.30;6.70;;;17.90;99.90;;;;;;4997688;28;20266;-79
2022/06/24 02:53:24;;;;;;;11.70;10.57;;;17.90;99.90;;;;;;4996199;28;20263;-78
2022/06/24 02:55:56;;;;;;;13.73;12.83;;;17.90;99.90;;;;;;4998060;28;20188;-78
2022/06/24 02:58:23;;;;;;;14.97;13.83;;;17.90;99.90;;;;;;5009878;28;20660;-79
2022/06/24 03:00:49;;;;;;;16.87;15.67;;;17.90;99.90;;;;;;4997482;28;20263;-78
2022/06/24 03:03:17;;;;;;;32.60;30.67;;;17.90;99.90;;;;;;4998566;28;20180;-78
2022/06/24 03:05:44;;;;;;;16.67;15.47;;;17.90;99.90;;;;;;4997127;28;20566;-78
2022/06/24 03:08:13;;;;;;;13.03;12.00;;;17.80;99.90;;;;;;4996529;28;20254;-78
2022/06/24 03:10:40;;;;;;;16.27;14.93;;;17.80;99.90;;;;;;4997804;28;20204;-78
2022/06/24 03:13:06;;;;;;;9.97;9.17;;;17.70;99.90;;;;;;4998894;28;20296;-78
2022/06/24 03:15:33;;;;;;;12.37;11.43;;;17.70;99.90;;;;;;4997658;28;20352;-78
2022/06/24 03:17:59;;;;;;;100.03;94.37;;;17.70;99.90;;;;;;4997143;28;20222;-79
2022/06/24 03:20:25;;;;;;;134.03;126.77;;;17.80;99.90;;;;;;4997687;28;20180;-78
2022/06/24 03:22:51;;;;;;;114.00;107.30;;;17.80;99.90;;;;;;4997635;28;20191;-79
2022/06/24 03:25:16;;;;;;;195.03;184.13;;;17.90;99.90;;;;;;4997294;28;20689;-78
2022/06/24 03:27:43;;;;;;;186.27;174.80;;;17.90;99.90;;;;;;4997362;28;20191;-78
2022/06/24 03:30:11;;;;;;;32.77;30.23;;;17.80;99.90;;;;;;5003794;28;20211;-78
2022/06/24 03:32:37;;;;;;;16.20;10.50;;;17.80;99.90;;;;;;5015122;28;20192;-79
2022/06/24 03:35:04;;;;;;;12.33;11.27;;;17.70;99.90;;;;;;4996947;28;20687;-78
2022/06/24 03:37:31;;;;;;;11.90;10.50;;;17.70;99.90;;;;;;4997376;28;20223;-77
2022/06/24 03:39:57;;;;;;;117.07;109.87;;;17.70;99.90;;;;;;4998539;28;20180;-77
2022/06/24 03:42:24;;;;;;;159.97;150.23;;;17.80;99.90;;;;;;4997899;28;20188;-78
2022/06/24 03:44:50;;;;;;;20.43;18.97;;;17.80;99.90;;;;;;4997606;28;20211;-78
2022/06/24 03:47:16;;;;;;;17.37;13.73;;;17.80;99.90;;;;;;4996614;28;20188;-78
2022/06/24 03:49:42;;;;;;;13.00;11.57;;;17.80;99.90;;;;;;4996459;28;20184;-78
2022/06/24 03:52:08;;;;;;;14.00;12.97;;;17.70;99.90;;;;;;4997302;28;20260;-78
2022/06/24 03:54:35;;;;;;;13.13;10.83;;;17.70;99.90;;;;;;5013278;28;20232;-78
2022/06/24 03:57:01;;;;;;;11.13;10.00;;;17.70;99.90;;;;;;4998188;28;20196;-76
2022/06/24 03:59:27;;;;;;;10.67;9.60;;;17.70;99.90;;;;;;4993102;28;20254;-76
2022/06/24 04:01:53;;;;;;;9.90;9.23;;;17.70;99.90;;;;;;4991888;28;20645;-77
2022/06/24 04:04:19;;;;;;;10.87;10.03;;;17.70;99.90;;;;;;5008090;28;20219;-77
2022/06/24 04:06:45;;;;;;;10.57;6.73;;;17.70;99.90;;;;;;4991324;28;20185;-77
2022/06/24 04:09:11;;;;;;;15.17;9.37;;;17.70;99.90;;;;;;4991925;28;20180;-78
2022/06/24 04:11:37;;;;;;;8.63;8.03;;;17.70;99.90;;;;;;4991816;28;20212;-77
2022/06/24 04:14:03;;;;;;;7.27;6.57;;;17.70;99.90;;;;;;4992838;28;20781;-77
2022/06/24 04:16:29;;;;;;;9.23;7.10;;;17.70;99.90;;;;;;4991534;28;20191;-77
2022/06/24 04:18:55;;;;;;;8.77;7.80;;;17.70;99.90;;;;;;4991874;28;20271;-77
2022/06/24 04:21:21;;;;;;;10.93;9.90;;;17.60;99.90;;;;;;4993296;28;20211;-79
2022/06/24 04:23:51;;;;;;;10.33;9.33;;;17.60;99.90;;;;;;4992595;28;20200;-77
2022/06/24 04:26:19;;;;;;;7.40;6.70;;;17.60;99.90;;;;;;4991911;28;20560;-76
2022/06/24 04:28:48;;;;;;;9.80;8.57;;;17.50;99.90;;;;;;4991351;28;20616;-79
2022/06/24 04:31:14;;;;;;;12.27;10.10;;;17.50;99.90;;;;;;4991180;28;20215;-77
2022/06/24 04:33:40;;;;;;;12.30;11.30;;;17.50;99.90;;;;;;4992134;28;20553;-77
2022/06/24 04:36:13;;;;;;;18.37;16.97;;;17.50;99.90;;;;;;4991205;28;20180;-77
2022/06/24 04:38:40;;;;;;;19.40;17.80;;;17.60;99.90;;;;;;4991607;28;20180;-77
2022/06/24 04:41:14;;;;;;;14.70;13.37;;;17.60;99.90;;;;;;4992640;28;20181;-77
2022/06/24 04:43:40;;;;;;;16.70;15.27;;;17.60;99.90;;;;;;4992139;28;20192;-77
2022/06/24 04:46:05;;;;;;;14.07;13.00;;;17.50;99.90;;;;;;4991224;28;20202;-77
2022/06/24 04:48:31;;;;;;;15.43;14.33;;;17.50;99.90;;;;;;4991432;28;20188;-77
2022/06/24 04:50:58;;;;;;;17.90;16.47;;;17.60;99.90;;;;;;4991000;28;20299;-77
2022/06/24 04:53:23;;;;;;;58.70;55.20;;;17.60;99.90;;;;;;4992113;28;20188;-77
2022/06/24 04:55:50;;;;;;;40.90;38.43;;;17.60;99.90;;;;;;5030639;23;20298;-78
2022/06/24 04:58:15;;;;;;;96.13;90.37;;;17.70;99.90;;;;;;5011954;28;20180;-78
2022/06/24 05:00:41;;;;;;;20.93;19.33;;;17.90;99.90;;;;;;5011976;28;20636;-78
2022/06/24 05:03:07;;;;;;;15.87;14.90;;;18.10;99.90;;;;;;5011830;28;20183;-78
2022/06/24 05:05:33;;;;;;;20.57;19.10;;;18.30;99.90;;;;;;5025753;28;20203;-77
2022/06/24 05:07:59;;;;;;;14.07;9.80;;;18.50;99.90;;;;;;5030625;28;20183;-78
2022/06/24 05:10:25;;;;;;;40.10;37.80;;;18.90;99.90;;;;;;5031137;28;20234;-78
2022/06/24 05:12:51;;;;;;;24.87;23.20;;;19.50;99.90;;;;;;5029913;28;20349;-78
2022/06/24 05:15:17;;;;;;;59.73;56.67;;;20.10;99.90;;;;;;5031483;28;20194;-78
2022/06/24 05:17:42;;;;;;;44.40;41.88;;;20.70;99.90;;;;;;5030267;28;20567;-76
2022/06/24 05:20:08;;;;;;;30.75;28.83;;;21.20;99.90;;;;;;5031400;28;20564;-77
2022/06/24 05:22:35;;;;;;;26.92;25.45;;;21.70;99.90;;;;;;5029998;28;20210;-77
2022/06/24 05:25:01;;;;;;;58.70;55.50;;;22.20;99.90;;;;;;5031896;28;20293;-77
2022/06/24 05:27:27;;;;;;;92.20;87.07;;;22.40;99.90;;;;;;5030471;28;20282;-77
2022/06/24 05:29:54;;;;;;;105.95;100.53;;;22.60;99.90;;;;;;5031263;28;20624;-77
2022/06/24 05:32:20;;;;;;;59.72;56.55;;;23.30;99.90;;;;;;5031036;28;20655;-77
2022/06/24 05:34:46;;;;;;;26.48;24.98;;;23.80;99.90;;;;;;5031243;28;20203;-76
2022/06/24 05:37:11;;;;;;;19.98;18.55;;;24.00;99.90;;;;;;5029565;28;20179;-77
2022/06/24 05:39:38;;;;;;;41.35;38.97;;;24.10;99.90;;;;;;5030927;28;20230;-77
2022/06/24 05:42:04;;;;;;;73.18;69.05;;;23.90;99.90;;;;;;5033074;28;20663;-76
2022/06/24 05:44:30;;;;;;;37.42;35.15;;;24.00;99.90;;;;;;5030877;28;20671;-78
2022/06/24 05:46:56;;;;;;;10.13;9.10;;;24.30;99.90;;;;;;5031079;28;20210;-78
2022/06/24 05:49:21;;;;;;;28.02;26.33;;;24.30;99.90;;;;;;5031107;28;20185;-78
2022/06/24 05:51:48;;;;;;;20.83;19.50;;;24.50;99.90;;;;;;5029438;28;20210;-77
2022/06/24 05:56:58;;;;;;;15.70;14.80;;;24.70;99.90;;;;;;5029974;28;20605;-76
2022/06/24 05:59:24;;;;;;;6.97;6.32;;;24.70;99.90;;;;;;5029296;28;20232;-76
2022/06/24 06:01:50;;;;;;;8.15;7.43;;;24.80;99.90;;;;;;5029562;28;20580;-77
2022/06/24 06:04:16;;;;;;;11.95;11.02;;;24.90;99.90;;;;;;5029434;28;20199;-77
2022/06/24 06:06:42;;;;;;;9.00;8.30;;;25.30;99.90;;;;;;5030952;28;20238;-78
2022/06/24 06:09:08;;;;;;;14.88;13.65;;;25.10;99.90;;;;;;5034260;28;20579;-78
2022/06/24 06:11:34;;;;;;;10.55;9.55;;;25.00;99.90;;;;;;5034642;28;20241;-77
2022/06/24 06:14:00;;;;;;;11.15;10.05;;;25.20;99.90;;;;;;5035278;28;20337;-78
2022/06/24 06:16:27;;;;;;;66.20;62.63;;;25.40;99.90;;;;;;5034901;28;20183;-77
2022/06/24 06:18:53;;;;;;;255.10;241.63;;;25.90;99.90;;;;;;5032720;28;20183;-78
2022/06/24 06:21:19;;;;;;;348.02;329.20;;;26.40;99.90;;;;;;5034561;28;20541;-77
2022/06/24 06:23:45;;;;;;;289.80;275.02;;;26.10;99.90;;;;;;5034221;28;20662;-77
2022/06/24 06:26:11;;;;;;;145.30;137.82;;;25.60;99.90;;;;;;5034496;28;20215;-77
2022/06/24 06:28:41;;;;;;;67.97;64.10;;;25.20;99.90;;;;;;5033977;28;20675;-77
2022/06/24 06:31:09;;;;;;;11.50;10.40;;;24.80;99.90;;;;;;5034224;28;20214;-76
2022/06/24 06:33:35;;;;;;;8.88;8.13;;;24.40;99.90;;;;;;5034289;28;20262;-77
2022/06/24 06:36:05;;;;;;;220.00;208.32;;;25.40;99.90;;;;;;5032712;28;20215;-77
2022/06/24 06:38:32;;;;;;;271.77;257.00;;;26.30;99.90;;;;;;5033203;28;20179;-77
2022/06/24 06:40:58;;;;;;;197.65;187.40;;;26.90;99.90;;;;;;5033930;28;20270;-77
2022/06/24 06:43:24;;;;;;;33.72;31.80;;;27.10;99.90;;;;;;5033142;28;20183;-77
2022/06/24 06:45:49;;;;;;;12.90;11.98;;;27.10;99.90;;;;;;5032635;28;20661;-77
2022/06/24 06:48:15;;;;;;;13.90;13.02;;;27.50;99.90;;;;;;5032902;28;20261;-77
2022/06/24 06:50:41;;;;;;;29.13;27.13;;;28.10;99.90;;;;;;5032413;28;20230;-77
2022/06/24 06:53:06;;;;;;;12.18;11.23;;;28.70;99.90;;;;;;5033655;28;20655;-77
2022/06/24 06:55:32;;;;;;;6.88;5.88;;;29.10;99.90;;;;;;5032274;28;20346;-77
2022/06/24 06:57:58;;;;;;;5.40;4.28;;;29.00;99.90;;;;;;5033460;28;20183;-78
2022/06/24 07:00:24;;;;;;;5.75;4.28;;;29.10;99.90;;;;;;5033581;28;20240;-77
2022/06/24 07:02:50;;;;;;;6.43;4.72;;;29.30;99.90;;;;;;5032201;28;20324;-77
2022/06/24 07:05:16;;;;;;;7.82;6.88;;;29.40;99.90;;;;;;5033522;28;20683;-77
2022/06/24 07:07:42;;;;;;;7.05;6.25;;;29.30;99.90;;;;;;5032719;28;20179;-77
2022/06/24 07:10:08;;;;;;;4.82;4.40;;;29.30;99.90;;;;;;5032180;28;20253;-77
2022/06/24 07:12:34;;;;;;;15.57;14.40;;;29.50;99.90;;;;;;5033886;28;20222;-77
2022/06/24 07:14:59;;;;;;;12.63;11.60;;;29.40;99.90;;;;;;5033134;28;20207;-76
2022/06/24 07:17:25;;;;;;;19.45;18.08;;;29.50;99.90;;;;;;5032431;28;20186;-78
2022/06/24 07:19:51;;;;;;;22.42;20.83;;;29.40;99.90;;;;;;5033191;28;20175;-78
2022/06/24 07:22:17;;;;;;;7.68;6.97;;;29.40;99.90;;;;;;5033237;28;20186;-77
2022/06/24 07:24:44;;;;;;;15.55;14.18;;;29.90;99.90;;;;;;5031946;28;20202;-78
2022/06/24 07:27:10;;;;;;;13.10;12.13;;;30.30;99.90;;;;;;5032362;28;20558;-78
2022/06/24 07:29:37;;;;;;;27.95;26.33;;;30.00;99.90;;;;;;5031752;28;20182;-78
2022/06/24 07:32:05;;;;;;;15.48;14.15;;;29.40;99.90;;;;;;5033431;28;20218;-77
2022/06/24 07:34:33;;;;;;;22.98;21.38;;;29.50;99.90;;;;;;5032972;28;20615;-78
2022/06/24 07:36:59;;;;;;;67.88;61.80;;;29.60;99.90;;;;;;5032392;28;20233;-78
2022/06/24 07:39:25;;;;;;;33.25;31.15;;;29.90;99.90;;;;;;5033080;28;20179;-78
2022/06/24 07:41:51;;;;;;;21.40;19.63;;;29.90;99.90;;;;;;5031459;28;20193;-78
2022/06/24 07:44:17;;;;;;;6.40;4.25;;;29.80;99.90;;;;;;5032702;28;20718;-78
2022/06/24 07:46:43;;;;;;;21.02;19.83;;;30.10;99.90;;;;;;5032570;28;20191;-78
2022/06/24 07:49:09;;;;;;;18.25;17.05;;;29.90;99.90;;;;;;5032705;28;20202;-78
2022/06/24 07:51:34;;;;;;;55.50;52.55;;;29.50;99.90;;;;;;5032644;28;20776;-77
2022/06/24 07:54:01;;;;;;;10.95;6.25;;;28.40;99.90;;;;;;5031463;28;20230;-77
2022/06/24 07:59:12;;;;;;;5.65;4.43;;;28.40;99.90;;;;;;5033224;28;20183;-78
2022/06/24 08:01:37;;;;;;;11.00;10.38;;;29.40;99.90;;;;;;5033449;28;20206;-78
2022/06/24 08:04:07;;;;;;;27.92;26.05;;;30.10;99.90;;;;;;5032870;28;20841;-79
2022/06/24 08:06:38;;;;;;;6.13;4.07;;;30.40;99.90;;;;;;5032463;28;20274;-77
2022/06/24 08:09:04;;;;;;;6.82;6.22;;;30.30;99.90;;;;;;5030662;28;20187;-77
2022/06/24 08:11:30;;;;;;;13.50;12.65;;;29.50;99.20;;;;;;5030781;28;20203;-78
2022/06/24 08:13:56;;;;;;;41.95;39.58;;;28.70;99.90;;;;;;5030600;28;20179;-77
2022/06/24 08:16:22;;;;;;;6.07;5.18;;;28.10;99.90;;;;;;5031393;28;20171;-77
2022/06/24 08:18:51;;;;;;;3.50;3.20;;;27.50;99.90;;;;;;5030200;28;20193;-77
2022/06/24 08:21:18;;;;;;;3.63;3.42;;;27.40;99.90;;;;;;5032183;28;20646;-77
2022/06/24 08:23:43;;;;;;;5.50;3.65;;;27.30;99.90;;;;;;5031865;28;20269;-77
2022/06/24 08:26:09;;;;;;;7.25;3.35;;;27.10;99.90;;;;;;5032581;28;20598;-78
2022/06/24 08:28:35;;;;;;;5.60;5.22;;;26.80;99.90;;;;;;5031720;28;20190;-78
2022/06/24 08:31:04;;;;;;;5.72;5.18;;;26.70;99.90;;;;;;5031595;28;20221;-78
2022/06/24 08:33:30;;;;;;;5.57;5.20;;;26.50;99.90;;;;;;5032111;28;20179;-77
2022/06/24 08:35:55;;;;;;;6.80;5.22;;;26.60;99.90;;;;;;5030724;28;20282;-77
2022/06/24 08:38:21;;;;;;;7.20;6.07;;;26.80;99.90;;;;;;5029822;28;20179;-77
2022/06/24 08:40:48;;;;;;;6.38;5.97;;;27.00;99.90;;;;;;5031670;28;20198;-77
2022/06/24 08:43:15;;;;;;;7.10;5.70;;;27.10;99.90;;;;;;5031555;28;20195;-77
2022/06/24 08:45:41;;;;;;;5.75;5.35;;;27.30;99.90;;;;;;5030268;28;20198;-77
2022/06/24 08:48:10;;;;;;;4.15;3.85;;;27.60;99.90;;;;;;5030032;28;20244;-77
2022/06/24 08:50:37;;;;;;;6.70;4.03;;;28.50;99.90;;;;;;5035445;28;20206;-77
2022/06/24 08:53:06;;;;;;;4.90;4.03;;;28.90;99.70;;;;;;5032634;28;20171;-77
2022/06/24 08:55:37;;;;;;;7.38;5.28;;;29.10;99.90;;;;;;5030344;28;20218;-77
2022/06/24 08:58:08;;;;;;;8.05;6.45;;;29.00;99.90;;;;;;5029954;28;20197;-77
2022/06/24 09:00:35;;;;;;;10.07;9.45;;;28.80;99.90;;;;;;5031735;28;20187;-77
2022/06/24 09:03:02;;;;;;;7.93;7.15;;;28.50;99.90;;;;;;5030831;28;20183;-78
2022/06/24 09:05:28;;;;;;;5.47;5.00;;;28.40;99.90;;;;;;5031679;28;20211;-77
2022/06/24 09:08:05;;;;;;;8.75;8.18;;;28.30;99.90;;;;;;5030483;28;20183;-78
2022/06/24 09:10:31;;;;;;;4.85;4.55;;;28.10;99.40;;;;;;5030013;28;20301;-78
2022/06/24 09:12:57;;;;;;;7.28;6.63;;;28.00;99.80;;;;;;5030992;28;20179;-77
2022/06/24 09:15:24;;;;;;;6.05;4.97;;;28.00;99.50;;;;;;5029939;28;20226;-78
2022/06/24 09:17:50;;;;;;;6.05;4.10;;;28.30;99.70;;;;;;5030511;28;20179;-78
2022/06/24 09:20:21;;;;;;;15.02;14.07;;;28.60;99.90;;;;;;5029974;28;20614;-77
2022/06/24 09:22:47;;;;;;;24.40;23.08;;;28.80;97.70;;;;;;5030309;28;20187;-78
2022/06/24 09:25:13;;;;;;;23.38;21.80;;;28.70;98.70;;;;;;5031188;28;20203;-78
2022/06/24 09:27:44;;;;;;;14.73;13.77;;;28.70;97.60;;;;;;5030043;28;20183;-78
2022/06/24 09:30:20;;;;;;;17.92;16.83;;;28.90;97.20;;;;;;5030905;28;20659;-77
2022/06/24 09:32:54;;;;;;;10.63;9.57;;;29.70;97.70;;;;;;5029838;28;20675;-77
2022/06/24 09:35:21;;;;;;;7.18;6.82;;;30.20;95.00;;;;;;5030809;28;20256;-77
2022/06/24 09:37:50;;;;;;;5.20;4.80;;;30.60;93.30;;;;;;5028826;28;20210;-78
2022/06/24 09:40:30;;;;;;;4.18;3.80;;;30.80;93.30;;;;;;5030891;28;20238;-77
2022/06/24 09:43:00;;;;;;;5.38;4.90;;;31.00;93.20;;;;;;5032534;28;20186;-77
2022/06/24 09:45:52;;;;;;;13.80;13.05;;;31.40;91.40;;;;;;5035515;28;20202;-77
2022/06/24 09:48:30;;;;;;;18.17;17.00;;;31.80;90.50;;;;;;5032894;28;20187;-78
2022/06/24 09:51:00;;;;;;;21.02;19.77;;;32.30;88.20;;;;;;5034797;28;20214;-77
2022/06/24 09:53:27;;;;;;;36.42;34.42;;;32.30;84.40;;;;;;5034872;28;20220;-77
2022/06/24 09:55:54;;;;;;;25.08;23.52;;;32.50;81.20;;;;;;5033396;28;20213;-78
2022/06/24 09:58:22;;;;;;;23.30;22.02;;;32.60;81.20;;;;;;5034171;28;20671;-77
2022/06/24 10:00:49;;;;;;;29.00;27.40;;;32.10;78.80;;;;;;5034933;28;20699;-77
2022/06/24 10:03:16;;;;;;;32.28;30.63;;;32.30;79.80;;;;;;5034700;28;20183;-77
2022/06/24 10:05:45;;;;;;;72.38;68.93;;;33.20;78.60;;;;;;5033377;28;20211;-78
2022/06/24 10:08:14;;;;;;;48.92;46.55;;;33.50;73.70;;;;;;5034094;28;20205;-77
2022/06/24 10:10:48;;;;;;;76.32;72.47;;;32.90;70.70;;;;;;5034298;28;20912;-77
2022/06/24 10:13:33;;;;;;;75.25;71.43;;;32.40;73.40;;;;;;5033143;28;20178;-77
2022/06/24 10:16:01;;;;;;;33.63;31.70;;;31.90;73.70;;;;;;5034160;28;20202;-77
2022/06/24 10:18:37;;;;;;;42.60;40.20;;;31.80;79.20;;;;;;5035198;28;20171;-77
2022/06/24 10:21:08;;;;;;;65.18;61.97;;;32.90;76.20;;;;;;5035320;28;20191;-77
2022/06/24 10:23:41;;;;;;;56.88;54.08;;;34.10;72.20;;;;;;5034530;28;20182;-77
2022/06/24 10:26:29;;;;;;;78.68;74.85;;;33.90;71.40;;;;;;5034176;28;20458;-77
2022/06/24 10:29:04;;;;;;;41.80;39.65;;;33.50;74.10;;;;;;5032133;28;20194;-78
2022/06/24 10:31:48;;;;;;;92.25;87.80;;;32.60;73.70;;;;;;5033153;28;20222;-77
2022/06/24 10:34:20;;;;;;;57.42;54.42;;;32.80;74.40;;;;;;5033191;28;20207;-77
2022/06/24 10:36:47;;;;;;;20.65;19.58;;;33.00;70.90;;;;;;5033387;28;20175;-77
2022/06/24 10:39:20;;;;;;;44.40;42.10;;;33.10;67.30;;;;;;5033764;28;20175;-77
2022/06/24 10:41:57;;;;;;;42.40;40.20;;;33.80;69.80;;;;;;5032633;28;20193;-77
2022/06/24 10:44:29;;;;;;;55.53;52.53;;;34.30;69.80;;;;;;5032577;28;20210;-77
2022/06/24 10:47:14;;;;;;;81.70;77.88;;;34.90;68.40;;;;;;5033092;28;20183;-77
2022/06/24 10:49:52;;;;;;;147.57;140.52;;;35.50;64.40;;;;;;5033443;28;20221;-77
2022/06/24 10:52:35;;;;;;;108.40;102.93;;;34.80;63.20;;;;;;5033468;28;20207;-77
2022/06/24 10:55:29;;;;;;;286.60;272.23;;;35.80;62.50;;;;;;5045866;22;20227;-77
2022/06/24 10:58:07;;;;;;;290.63;275.70;;;36.30;59.00;;;;;;5013333;28;20321;-77
2022/06/24 11:00:39;;;;;;;303.08;288.00;;;36.20;58.60;;;;;;5014056;28;20589;-77
2022/06/24 11:03:04;;;;;;;269.75;256.23;;;35.80;58.00;;;;;;5012695;28;20692;-77
2022/06/24 11:05:36;;;;;;;366.02;346.83;;;34.70;60.50;;;;;;5026885;28;20270;-77
2022/06/24 11:08:08;;;;;;;115.55;109.97;;;33.50;64.60;;;;;;5036203;28;20183;-80
2022/06/24 11:10:34;;;;;;;69.80;66.40;;;32.50;66.00;;;;;;5033664;28;20264;-77
2022/06/24 11:13:02;;;;;;;46.08;43.47;;;32.00;66.00;;;;;;5032276;28;20273;-77
2022/06/24 11:15:43;;;;;;;57.22;54.03;;;31.80;68.60;;;;;;5033364;28;20209;-77
2022/06/24 11:18:17;;;;;;;76.30;72.20;;;32.40;69.40;;;;;;5031281;28;20713;-77
2022/06/24 11:20:53;;;;;;;60.70;57.60;;;31.40;72.20;;;;;;5032167;28;20678;-77
2022/06/24 11:23:20;;;;;;;46.63;44.22;;;30.60;74.70;;;;;;5034258;28;20202;-78
2022/06/24 11:25:58;;;;;;;54.22;51.38;;;30.20;73.50;;;;;;5035268;28;20215;-78
2022/06/24 11:28:27;;;;;;;46.28;43.45;;;29.90;75.90;;;;;;5033647;28;20539;-78
2022/06/24 11:30:55;;;;;;;21.30;20.13;;;29.30;79.30;;;;;;5048010;28;20211;-78
2022/06/24 11:33:22;;;;;;;14.40;13.43;;;29.20;80.70;;;;;;5035038;28;20179;-78
2022/06/24 11:35:49;;;;;;;12.80;12.02;;;29.50;80.00;;;;;;5034297;28;20191;-78
2022/06/24 11:38:16;;;;;;;18.63;17.02;;;29.70;79.10;;;;;;5034309;28;20193;-78
2022/06/24 11:40:42;;;;;;;21.92;19.90;;;29.80;80.00;;;;;;5035305;28;20183;-77
2022/06/24 11:43:14;;;;;;;20.75;19.10;;;29.80;79.80;;;;;;5035865;28;20191;-78
2022/06/24 11:45:42;;;;;;;16.65;15.25;;;29.60;80.50;;;;;;5034916;28;20215;-78
2022/06/24 11:48:12;;;;;;;13.38;12.38;;;29.30;81.10;;;;;;5032634;28;20175;-77
2022/06/24 11:50:39;;;;;;;6.60;6.03;;;29.00;81.40;;;;;;5038737;28;20214;-78
2022/06/24 11:53:07;;;;;;;10.02;8.90;;;28.70;82.60;;;;;;5039937;28;20182;-77
2022/06/24 11:55:39;;;;;;;12.25;5.45;;;28.40;85.00;;;;;;5032940;28;20210;-78
2022/06/24 11:58:08;;;;;;;17.98;16.58;;;28.20;89.00;;;;;;5031983;28;20240;-77
2022/06/24 12:00:38;;;;;;;26.95;25.42;;;28.10;90.00;;;;;;5034337;28;20175;-77
2022/06/24 12:03:07;;;;;;;28.55;26.80;;;28.30;90.20;;;;;;5034378;28;20206;-78
2022/06/24 12:05:37;;;;;;;20.98;19.80;;;28.60;90.10;;;;;;5050018;28;20199;-77
2022/06/24 12:08:04;;;;;;;9.75;8.68;;;29.60;88.30;;;;;;5051707;28;20187;-77
2022/06/24 12:10:30;;;;;;;8.98;8.27;;;31.50;85.50;;;;;;5039978;28;20218;-78
2022/06/24 12:13:03;;;;;;;56.63;53.72;;;33.30;80.00;;;;;;5033755;28;20633;-78
2022/06/24 12:15:38;;;;;;;77.82;73.80;;;34.60;74.00;;;;;;5035278;28;20278;-78
2022/06/24 12:18:18;;;;;;;72.93;69.00;;;35.30;68.60;;;;;;5033960;28;20193;-78
2022/06/24 12:20:55;;;;;;;77.82;73.13;;;35.60;66.90;;;;;;5034290;28;20604;-78
2022/06/24 12:23:22;;;;;;;79.30;75.22;;;35.10;66.30;;;;;;5034894;28;20210;-78
2022/06/24 12:25:50;;;;;;;75.40;71.50;;;33.30;68.70;;;;;;5033465;28;20206;-77
2022/06/24 12:28:21;;;;;;;103.50;98.45;;;32.20;70.90;;;;;;5031081;28;20229;-77
2022/06/24 12:31:06;;;;;;;73.57;70.07;;;31.40;73.20;;;;;;5030937;28;20595;-80
2022/06/24 12:33:34;;;;;;;77.10;73.22;;;30.80;76.30;;;;;;5031038;28;20221;-79
2022/06/24 12:36:24;;;;;;;28.42;26.42;;;29.90;79.40;;;;;;5032542;28;20614;-79
2022/06/24 12:38:53;;;;;;;8.18;7.68;;;28.90;82.50;;;;;;5030873;28;20179;-77
2022/06/24 12:41:21;;;;;;;7.90;7.22;;;28.00;85.50;;;;;;5033256;28;20211;-80
2022/06/24 12:44:01;;;;;;;50.10;47.60;;;27.50;90.00;;;;;;5044740;28;20187;-77